Time;durP1;ratioP1;P1;durP2;ratioP2;P2;SDS_P1;SDS_P2;PMS_P1;PMS_P2;Temp;Humidity;BMP_temperature;BMP_pressure;BME280_temperature;BME280_humidity;BME280_pressure;Samples;Min_cycle;Max_cycle;Signal;HPM_P1;HPM_P2
2022/05/14 00:00:55;;;;;;;3.42;1.13;;;;;;;;;;5032897;28;20044;-67
2022/05/14 00:03:25;;;;;;;5.03;1.30;;;;;;;;;;5033725;28;20138;-67
2022/05/14 00:05:53;;;;;;;4.60;1.42;;;;;;;;;;5032722;28;20029;-66
2022/05/14 00:08:21;;;;;;;6.32;1.20;;;;;;;;;;5033634;28;20100;-67
2022/05/14 00:13:33;;;;;;;4.97;1.33;;;;;;;;;;5034562;28;20053;-65
2022/05/14 00:16:00;;;;;;;3.67;1.17;;;;;;;;;;5034163;28;20037;-66
2022/05/14 00:18:28;;;;;;;5.07;1.92;;;;;;;;;;5033118;28;20047;-66
2022/05/14 00:20:54;;;;;;;6.22;2.17;;;;;;;;;;5031908;28;20098;-67
2022/05/14 00:23:21;;;;;;;4.63;1.65;;;;;;;;;;5034224;28;20041;-67
2022/05/14 00:25:48;;;;;;;5.30;1.40;;;;;;;;;;5033441;28;20099;-67
2022/05/14 00:28:15;;;;;;;3.00;1.10;;;;;;;;;;5035165;28;20280;-64
2022/05/14 00:30:42;;;;;;;4.13;1.30;;;;;;;;;;5031825;28;22454;-66
2022/05/14 00:33:08;;;;;;;6.10;1.45;;;;;;;;;;5033685;28;20113;-66
2022/05/14 00:35:36;;;;;;;2.95;1.02;;;;;;;;;;5032017;28;20036;-66
2022/05/14 00:38:02;;;;;;;6.05;1.35;;;;;;;;;;5034816;28;20037;-68
2022/05/14 00:40:32;;;;;;;3.33;1.02;;;;;;;;;;5034450;28;20041;-68
2022/05/14 00:43:01;;;;;;;4.20;1.30;;;;;;;;;;5036023;28;20128;-68
2022/05/14 00:45:28;;;;;;;3.50;1.00;;;;;;;;;;5033756;28;20044;-67
2022/05/14 00:47:57;;;;;;;3.95;1.10;;;;;;;;;;5036452;28;20135;-66
2022/05/14 00:50:44;;;;;;;3.80;1.10;;;;;;;;;;5033703;28;20080;-68
2022/05/14 00:53:16;;;;;;;4.63;1.45;;;;;;;;;;5035433;28;20528;-68
2022/05/14 00:55:44;;;;;;;4.70;1.00;;;;;;;;;;5032702;28;20187;-68
2022/05/14 00:58:14;;;;;;;4.25;1.10;;;;;;;;;;5034602;28;20041;-68
2022/05/14 01:00:41;;;;;;;4.38;1.25;;;;;;;;;;5032995;28;20541;-67
2022/05/14 01:03:07;;;;;;;3.30;1.00;;;;;;;;;;5034484;28;21769;-68
2022/05/14 01:05:34;;;;;;;4.05;1.30;;;;;;;;;;5034558;28;20116;-66
2022/05/14 01:08:02;;;;;;;3.35;1.08;;;;;;;;;;5049012;28;20052;-66
2022/05/14 01:10:33;;;;;;;3.38;1.08;;;;;;;;;;5051353;28;20052;-68
2022/05/14 01:13:01;;;;;;;4.43;1.17;;;;;;;;;;5052035;28;20497;-67
2022/05/14 01:15:57;;;;;;;3.85;1.02;;;;;;;;;;5051677;28;20051;-67
2022/05/14 01:18:26;;;;;;;3.63;1.15;;;;;;;;;;5032263;28;20080;-67
2022/05/14 01:21:00;;;;;;;2.97;1.15;;;;;;;;;;5052618;28;20080;-67
2022/05/14 01:26:28;;;;;;;4.90;1.20;;;;;;;;;;5052020;28;20071;-67
2022/05/14 01:28:59;;;;;;;4.65;1.20;;;;;;;;;;5054357;28;20054;-67
2022/05/14 01:31:27;;;;;;;3.45;1.10;;;;;;;;;;5050845;28;20095;-67
2022/05/14 01:33:54;;;;;;;3.25;1.00;;;;;;;;;;5054188;28;20080;-67
2022/05/14 01:36:21;;;;;;;3.85;1.00;;;;;;;;;;5052841;28;20037;-67
2022/05/14 01:38:48;;;;;;;4.05;1.17;;;;;;;;;;5053093;28;20055;-67
2022/05/14 01:41:15;;;;;;;4.93;1.10;;;;;;;;;;5051078;28;20041;-67
2022/05/14 01:43:42;;;;;;;4.63;1.20;;;;;;;;;;5053389;28;20044;-66
2022/05/14 01:46:09;;;;;;;3.83;0.90;;;;;;;;;;5025707;28;20465;-66
2022/05/14 01:48:36;;;;;;;3.53;1.30;;;;;;;;;;5014540;28;20068;-66
2022/05/14 01:51:03;;;;;;;2.85;1.15;;;;;;;;;;5015776;28;20084;-67
2022/05/14 01:53:30;;;;;;;3.03;1.00;;;;;;;;;;5014284;28;20129;-67
2022/05/14 01:55:56;;;;;;;5.30;0.95;;;;;;;;;;5015808;28;20071;-66
2022/05/14 01:58:38;;;;;;;11.95;3.65;;;;;;;;;;5012190;28;20037;-67
2022/05/14 02:01:12;;;;;;;6.13;1.40;;;;;;;;;;5014893;28;20041;-66
2022/05/14 02:03:39;;;;;;;8.68;1.23;;;;;;;;;;5012603;28;20037;-67
2022/05/14 02:06:07;;;;;;;3.05;1.15;;;;;;;;;;5011741;28;20037;-64
2022/05/14 02:08:34;;;;;;;4.47;1.63;;;;;;;;;;5013122;28;20100;-67
2022/05/14 02:11:21;;;;;;;5.82;1.38;;;;;;;;;;5010148;28;20037;-65
2022/05/14 02:13:48;;;;;;;4.22;1.48;;;;;;;;;;5008156;28;20052;-64
2022/05/14 02:16:15;;;;;;;4.72;1.08;;;;;;;;;;4999590;28;20041;-63
2022/05/14 02:18:42;;;;;;;4.75;1.10;;;;;;;;;;4992080;28;20506;-62
2022/05/14 02:21:10;;;;;;;6.10;1.30;;;;;;;;;;4995104;28;20066;-63
2022/05/14 02:23:38;;;;;;;3.25;1.00;;;;;;;;;;5003435;28;20219;-64
2022/05/14 02:26:05;;;;;;;3.42;1.15;;;;;;;;;;5004864;28;20042;-64
2022/05/14 02:28:33;;;;;;;3.83;1.17;;;;;;;;;;4997610;28;20247;-64
2022/05/14 02:31:00;;;;;;;3.60;0.90;;;;;;;;;;5000082;28;20038;-64
2022/05/14 02:33:27;;;;;;;3.08;1.13;;;;;;;;;;5004693;28;20083;-62
2022/05/14 02:35:54;;;;;;;5.95;1.42;;;;;;;;;;5006007;28;20098;-66
2022/05/14 02:38:20;;;;;;;4.60;1.38;;;;;;;;;;4976145;28;20042;-66
2022/05/14 02:40:50;;;;;;;4.65;1.05;;;;;;;;;;4991591;28;20041;-65
2022/05/14 02:43:17;;;;;;;6.97;1.63;;;;;;;;;;5008695;28;20041;-66
2022/05/14 02:45:43;;;;;;;7.47;1.20;;;;;;;;;;5009649;28;20057;-65
2022/05/14 02:48:12;;;;;;;6.20;1.10;;;;;;;;;;5016164;28;20179;-65
2022/05/14 02:50:39;;;;;;;3.70;1.15;;;;;;;;;;5032824;28;20053;-66
2022/05/14 02:53:06;;;;;;;5.30;1.17;;;;;;;;;;5033336;28;20433;-65
2022/05/14 02:55:33;;;;;;;3.08;1.00;;;;;;;;;;5031225;28;20139;-65
2022/05/14 02:57:59;;;;;;;4.88;1.00;;;;;;;;;;5036418;28;20090;-65
2022/05/14 03:00:26;;;;;;;3.75;1.13;;;;;;;;;;5036270;28;20029;-63
2022/05/14 03:02:54;;;;;;;4.50;1.30;;;;;;;;;;5036609;28;20494;-63
2022/05/14 03:05:21;;;;;;;6.13;1.20;;;;;;;;;;5037579;28;20612;-64
2022/05/14 03:07:48;;;;;;;3.58;1.30;;;;;;;;;;5036750;28;20041;-64
2022/05/14 03:10:15;;;;;;;5.45;1.20;;;;;;;;;;5035561;28;20053;-64
2022/05/14 03:12:42;;;;;;;6.32;1.20;;;;;;;;;;5035155;28;20082;-64
2022/05/14 03:15:10;;;;;;;4.32;1.00;;;;;;;;;;5036421;28;20108;-63
2022/05/14 03:17:37;;;;;;;5.15;1.70;;;;;;;;;;5036974;28;20041;-64
2022/05/14 03:20:08;;;;;;;3.67;1.48;;;;;;;;;;5036886;28;20064;-65
2022/05/14 03:22:35;;;;;;;3.63;1.05;;;;;;;;;;5038180;28;20088;-65
2022/05/14 03:25:02;;;;;;;5.85;1.23;;;;;;;;;;5036825;28;20053;-64
2022/05/14 03:27:29;;;;;;;6.10;1.40;;;;;;;;;;5037299;28;20048;-65
2022/05/14 03:29:56;;;;;;;5.63;1.65;;;;;;;;;;5036130;28;20041;-65
2022/05/14 03:32:24;;;;;;;5.30;1.42;;;;;;;;;;5037329;28;20124;-66
2022/05/14 03:34:54;;;;;;;6.63;1.75;;;;;;;;;;5037353;28;20163;-63
2022/05/14 03:37:21;;;;;;;3.67;1.42;;;;;;;;;;5039924;28;20044;-65
2022/05/14 03:39:48;;;;;;;3.22;1.17;;;;;;;;;;5036170;28;20044;-65
2022/05/14 03:42:16;;;;;;;7.53;1.67;;;;;;;;;;5037850;28;20037;-65
2022/05/14 03:44:43;;;;;;;5.60;1.70;;;;;;;;;;5039478;28;20079;-66
2022/05/14 03:47:10;;;;;;;5.25;1.48;;;;;;;;;;5037983;28;20048;-66
2022/05/14 03:49:36;;;;;;;6.60;1.83;;;;;;;;;;5035299;28;20060;-65
2022/05/14 03:52:03;;;;;;;4.88;1.80;;;;;;;;;;5037185;28;20116;-65
2022/05/14 03:54:33;;;;;;;5.55;1.90;;;;;;;;;;5037392;28;20040;-66
2022/05/14 03:57:14;;;;;;;10.27;2.70;;;;;;;;;;5021214;28;20505;-66
2022/05/14 03:59:41;;;;;;;9.13;2.00;;;;;;;;;;5034675;28;20041;-66
2022/05/14 04:02:12;;;;;;;4.80;1.98;;;;;;;;;;5040730;28;20041;-66
2022/05/14 04:04:39;;;;;;;5.15;2.20;;;;;;;;;;5039878;28;20036;-66
2022/05/14 04:07:06;;;;;;;7.75;1.60;;;;;;;;;;5040007;28;20103;-66
2022/05/14 04:09:33;;;;;;;6.50;1.90;;;;;;;;;;5038735;28;20417;-66
2022/05/14 04:12:00;;;;;;;4.50;1.75;;;;;;;;;;5040698;28;20041;-66
2022/05/14 04:14:28;;;;;;;4.53;2.05;;;;;;;;;;5039434;28;20147;-66
2022/05/14 04:16:55;;;;;;;4.50;1.85;;;;;;;;;;5040132;28;20045;-65
2022/05/14 04:19:21;;;;;;;4.32;2.03;;;;;;;;;;5037663;28;20116;-66
2022/05/14 04:21:48;;;;;;;4.90;1.98;;;;;;;;;;5039063;28;20037;-66
2022/05/14 04:24:15;;;;;;;5.28;2.20;;;;;;;;;;5039390;28;20044;-66
2022/05/14 04:26:42;;;;;;;6.72;2.38;;;;;;;;;;5038642;28;20103;-66
2022/05/14 04:29:09;;;;;;;6.82;1.83;;;;;;;;;;5036774;28;20045;-66
2022/05/14 04:31:39;;;;;;;6.05;2.33;;;;;;;;;;5039925;28;20040;-66
2022/05/14 04:34:06;;;;;;;6.97;2.40;;;;;;;;;;5023841;28;20045;-65
2022/05/14 04:36:33;;;;;;;8.35;2.85;;;;;;;;;;5041111;28;20075;-65
2022/05/14 04:39:00;;;;;;;7.40;2.85;;;;;;;;;;5041368;28;20045;-65
2022/05/14 04:41:30;;;;;;;5.47;2.92;;;;;;;;;;5035450;28;20402;-65
2022/05/14 04:44:00;;;;;;;6.03;2.80;;;;;;;;;;5036632;28;20037;-64
2022/05/14 04:46:27;;;;;;;10.68;2.95;;;;;;;;;;5046835;28;20105;-65
2022/05/14 04:48:54;;;;;;;4.75;2.53;;;;;;;;;;5054281;28;20041;-65
2022/05/14 04:51:21;;;;;;;5.40;2.58;;;;;;;;;;5055718;28;20037;-65
2022/05/14 04:53:47;;;;;;;6.03;2.45;;;;;;;;;;5054812;28;20833;-65
2022/05/14 04:56:14;;;;;;;7.95;2.95;;;;;;;;;;5057011;28;20037;-65
2022/05/14 04:58:41;;;;;;;6.03;2.60;;;;;;;;;;5053965;28;20050;-65
2022/05/14 05:01:07;;;;;;;8.73;2.50;;;;;;;;;;5053429;28;20037;-65
2022/05/14 05:03:34;;;;;;;6.55;2.03;;;;;;;;;;5052170;28;20059;-64
2022/05/14 05:06:01;;;;;;;5.85;2.08;;;;;;;;;;5053862;28;20052;-66
2022/05/14 05:08:30;;;;;;;10.60;2.45;;;;;;;;;;5053368;28;20351;-66
2022/05/14 05:10:57;;;;;;;3.78;1.90;;;;;;;;;;5052920;28;20044;-65
2022/05/14 05:13:25;;;;;;;5.30;2.28;;;;;;;;;;5053872;28;20051;-66
2022/05/14 05:15:52;;;;;;;5.45;2.15;;;;;;;;;;5056798;28;20049;-66
2022/05/14 05:18:20;;;;;;;5.20;2.05;;;;;;;;;;5054688;28;20511;-66
2022/05/14 05:20:49;;;;;;;5.93;2.72;;;;;;;;;;5054705;28;20040;-65
2022/05/14 05:23:17;;;;;;;6.10;2.42;;;;;;;;;;5055468;28;20060;-65
2022/05/14 05:25:45;;;;;;;5.57;2.45;;;;;;;;;;5054302;28;20048;-65
2022/05/14 05:28:11;;;;;;;10.05;2.30;;;;;;;;;;5054890;28;20057;-65
2022/05/14 05:30:38;;;;;;;5.03;2.30;;;;;;;;;;5053618;28;20059;-64
2022/05/14 05:33:05;;;;;;;4.90;1.88;;;;;;;;;;5053759;28;20115;-64
2022/05/14 05:35:32;;;;;;;5.63;1.58;;;;;;;;;;5053208;28;20163;-65
2022/05/14 05:37:58;;;;;;;4.93;1.50;;;;;;;;;;5053227;28;20044;-65
2022/05/14 05:40:26;;;;;;;5.10;1.10;;;;;;;;;;5051554;28;20040;-65
2022/05/14 05:42:53;;;;;;;4.25;1.40;;;;;;;;;;5053616;28;20051;-64
2022/05/14 05:45:19;;;;;;;4.07;1.45;;;;;;;;;;5052353;28;20025;-64
2022/05/14 05:47:46;;;;;;;3.97;1.10;;;;;;;;;;5033517;28;20833;-64
2022/05/14 05:50:13;;;;;;;2.72;1.00;;;;;;;;;;5041121;28;20056;-65
2022/05/14 05:52:40;;;;;;;3.10;0.93;;;;;;;;;;5030770;28;20045;-64
2022/05/14 05:57:52;;;;;;;3.13;0.90;;;;;;;;;;5032447;28;20048;-66
2022/05/14 06:00:21;;;;;;;2.50;0.70;;;;;;;;;;5032429;28;20045;-67
2022/05/14 06:02:49;;;;;;;5.47;0.85;;;;;;;;;;5050907;28;20110;-65
2022/05/14 06:05:16;;;;;;;1.83;0.57;;;;;;;;;;5052907;28;20040;-66
2022/05/14 06:07:43;;;;;;;1.45;0.50;;;;;;;;;;5052123;28;20077;-66
2022/05/14 06:10:11;;;;;;;5.00;0.80;;;;;;;;;;5051704;28;20141;-66
2022/05/14 06:12:38;;;;;;;2.95;0.50;;;;;;;;;;5035836;28;20048;-66
2022/05/14 06:15:09;;;;;;;4.00;0.73;;;;;;;;;;5051335;28;20121;-65
2022/05/14 06:17:36;;;;;;;6.22;0.60;;;;;;;;;;5051358;28;20037;-64
2022/05/14 06:20:03;;;;;;;4.70;0.60;;;;;;;;;;5053276;28;20040;-64
2022/05/14 06:22:30;;;;;;;3.65;0.52;;;;;;;;;;5054092;28;20040;-64
2022/05/14 06:24:57;;;;;;;1.58;0.57;;;;;;;;;;5038904;28;20035;-65
2022/05/14 06:27:24;;;;;;;2.85;0.60;;;;;;;;;;5053911;28;20048;-64
2022/05/14 06:29:50;;;;;;;1.58;0.50;;;;;;;;;;5054261;28;20529;-64
2022/05/14 06:32:17;;;;;;;1.10;0.40;;;;;;;;;;5054008;28;20658;-64
2022/05/14 06:34:44;;;;;;;1.05;0.40;;;;;;;;;;5054602;28;22332;-66
2022/05/14 06:37:12;;;;;;;6.95;0.50;;;;;;;;;;5057833;28;20422;-66
2022/05/14 06:39:39;;;;;;;1.38;0.50;;;;;;;;;;5055302;28;20037;-66
2022/05/14 06:42:06;;;;;;;1.85;0.57;;;;;;;;;;5056444;28;20041;-66
2022/05/14 06:44:33;;;;;;;3.53;0.52;;;;;;;;;;5054793;28;20040;-66
2022/05/14 06:46:59;;;;;;;1.15;0.40;;;;;;;;;;5056616;28;20079;-64
2022/05/14 06:49:26;;;;;;;8.32;0.50;;;;;;;;;;5054176;28;20106;-66
2022/05/14 06:51:53;;;;;;;1.52;0.40;;;;;;;;;;5055423;28;20107;-65
2022/05/14 06:54:21;;;;;;;1.45;0.50;;;;;;;;;;5056478;28;20963;-64
2022/05/14 06:56:48;;;;;;;1.42;0.43;;;;;;;;;;5056186;28;20111;-65
2022/05/14 06:59:15;;;;;;;1.25;0.47;;;;;;;;;;5055754;28;20049;-65
2022/05/14 07:01:44;;;;;;;1.73;0.50;;;;;;;;;;5054494;28;20081;-65
2022/05/14 07:06:57;;;;;;;2.03;0.50;;;;;;;;;;5054420;28;20039;-65
2022/05/14 07:09:27;;;;;;;3.05;0.50;;;;;;;;;;5052675;28;20052;-65
2022/05/14 07:11:56;;;;;;;5.45;0.63;;;;;;;;;;5054370;28;20048;-65
2022/05/14 07:14:24;;;;;;;0.95;0.40;;;;;;;;;;5053311;28;20112;-65
2022/05/14 07:16:51;;;;;;;4.60;0.50;;;;;;;;;;5054169;28;20113;-66
2022/05/14 07:19:18;;;;;;;2.15;0.57;;;;;;;;;;5053819;28;20025;-65
2022/05/14 07:21:45;;;;;;;2.70;0.50;;;;;;;;;;5054956;28;20063;-65
2022/05/14 07:24:22;;;;;;;0.85;0.32;;;;;;;;;;5055915;28;20048;-65
2022/05/14 07:26:50;;;;;;;3.58;0.73;;;;;;;;;;5054045;28;20072;-66
2022/05/14 07:29:18;;;;;;;0.95;0.40;;;;;;;;;;5053561;28;20139;-65
2022/05/14 07:31:45;;;;;;;2.35;0.50;;;;;;;;;;5054288;28;20044;-65
2022/05/14 07:34:11;;;;;;;1.52;0.50;;;;;;;;;;5052275;28;20051;-64
2022/05/14 07:36:41;;;;;;;1.25;0.40;;;;;;;;;;5054625;28;20067;-64
2022/05/14 07:39:08;;;;;;;2.40;0.55;;;;;;;;;;5054348;28;20479;-65
2022/05/14 07:41:36;;;;;;;1.15;0.55;;;;;;;;;;5054607;28;20053;-65
2022/05/14 07:44:05;;;;;;;1.27;0.40;;;;;;;;;;5054452;28;20029;-65
2022/05/14 07:46:35;;;;;;;1.13;0.45;;;;;;;;;;5054588;28;20052;-65
2022/05/14 07:49:04;;;;;;;1.70;0.50;;;;;;;;;;5054248;28;20036;-65
2022/05/14 07:51:31;;;;;;;1.48;0.45;;;;;;;;;;5052747;28;21301;-65
2022/05/14 07:53:57;;;;;;;3.20;0.63;;;;;;;;;;5039020;28;20086;-66
2022/05/14 07:56:24;;;;;;;2.85;0.70;;;;;;;;;;5053118;28;20036;-65
2022/05/14 07:58:51;;;;;;;1.52;0.50;;;;;;;;;;5054585;28;20090;-65
2022/05/14 08:01:18;;;;;;;1.38;0.50;;;;;;;;;;5036135;28;20040;-65
2022/05/14 08:03:47;;;;;;;0.57;0.30;;;;;;;;;;5053659;28;20045;-65
2022/05/14 08:06:15;;;;;;;7.10;0.50;;;;;;;;;;5055570;28;20028;-65
2022/05/14 08:08:42;;;;;;;1.70;0.60;;;;;;;;;;5036918;28;20437;-65
2022/05/14 08:11:09;;;;;;;3.25;0.50;;;;;;;;;;5055068;28;20146;-65
2022/05/14 08:13:37;;;;;;;1.75;0.43;;;;;;;;;;5053654;28;20036;-65
2022/05/14 08:16:03;;;;;;;1.77;0.40;;;;;;;;;;5054658;28;20045;-65
2022/05/14 08:18:32;;;;;;;1.02;0.40;;;;;;;;;;5053645;28;20037;-65
2022/05/14 08:24:29;;;;;;;1.02;0.40;;;;;;;;;;5054768;28;20045;-65
2022/05/14 08:26:31;;;;;;;0.90;0.40;;;;;;;;;;5054606;28;20047;-65
2022/05/14 08:28:57;;;;;;;1.90;0.60;;;;;;;;;;5055165;28;20032;-64
2022/05/14 08:31:24;;;;;;;1.10;0.40;;;;;;;;;;5053259;28;20052;-64
2022/05/14 08:33:50;;;;;;;1.13;0.40;;;;;;;;;;5055257;28;20036;-65
2022/05/14 08:36:17;;;;;;;1.23;0.40;;;;;;;;;;5055494;28;20040;-65
2022/05/14 08:38:44;;;;;;;2.63;0.40;;;;;;;;;;5056494;28;20045;-65
2022/05/14 08:41:15;;;;;;;1.30;0.50;;;;;;;;;;5057066;28;20047;-65
2022/05/14 08:43:47;;;;;;;0.93;0.40;;;;;;;;;;5054901;28;20048;-65
2022/05/14 08:46:15;;;;;;;0.75;0.40;;;;;;;;;;5056087;28;20057;-65
2022/05/14 08:48:41;;;;;;;1.42;0.50;;;;;;;;;;5054401;28;20064;-65
2022/05/14 08:51:08;;;;;;;0.82;0.40;;;;;;;;;;5055138;28;20678;-64
2022/05/14 08:53:36;;;;;;;1.73;0.50;;;;;;;;;;5053864;28;20036;-65
2022/05/14 08:56:21;;;;;;;1.52;0.43;;;;;;;;;;5055628;28;20074;-65
2022/05/14 08:59:26;;;;;;;1.00;0.40;;;;;;;;;;5053427;28;20048;-63
2022/05/14 09:01:57;;;;;;;1.17;0.40;;;;;;;;;;4975604;28;20046;-64
2022/05/14 09:04:24;;;;;;;0.93;0.40;;;;;;;;;;4974946;28;20034;-65
2022/05/14 09:06:51;;;;;;;1.25;0.43;;;;;;;;;;5017064;28;20063;-64
2022/05/14 09:09:18;;;;;;;0.85;0.40;;;;;;;;;;5052781;28;20055;-65
2022/05/14 09:11:46;;;;;;;0.82;0.30;;;;;;;;;;5054701;28;20032;-65
2022/05/14 09:14:26;;;;;;;1.33;0.50;;;;;;;;;;5054104;28;20071;-65
2022/05/14 09:17:04;;;;;;;1.63;0.50;;;;;;;;;;5052879;28;20037;-65
2022/05/14 09:19:42;;;;;;;0.63;0.32;;;;;;;;;;5052596;28;21328;-64
2022/05/14 09:22:28;;;;;;;0.93;0.40;;;;;;;;;;5053184;28;20204;-64
2022/05/14 09:24:57;;;;;;;1.63;0.43;;;;;;;;;;5051583;28;20041;-64
2022/05/14 09:27:30;;;;;;;1.85;0.50;;;;;;;;;;5050057;28;20033;-65
2022/05/14 09:30:01;;;;;;;1.00;0.40;;;;;;;;;;5051103;28;20047;-65
2022/05/14 09:32:33;;;;;;;1.00;0.40;;;;;;;;;;5052466;28;20116;-64
2022/05/14 09:35:03;;;;;;;1.30;0.40;;;;;;;;;;5052767;28;20401;-65
2022/05/14 09:37:30;;;;;;;0.73;0.40;;;;;;;;;;5052056;28;20561;-65
2022/05/14 09:39:58;;;;;;;0.93;0.40;;;;;;;;;;5054061;28;20036;-64
2022/05/14 09:42:31;;;;;;;0.80;0.40;;;;;;;;;;5055665;28;20517;-64
2022/05/14 09:44:58;;;;;;;1.50;0.40;;;;;;;;;;5057107;28;20561;-64
2022/05/14 09:47:30;;;;;;;1.42;0.50;;;;;;;;;;5056628;28;20183;-64
2022/05/14 09:50:05;;;;;;;0.80;0.40;;;;;;;;;;5057292;28;20558;-64
2022/05/14 09:52:33;;;;;;;2.45;0.57;;;;;;;;;;5056693;28;20048;-65
2022/05/14 09:55:03;;;;;;;1.65;0.50;;;;;;;;;;5057292;28;20041;-64
2022/05/14 09:57:33;;;;;;;1.15;0.40;;;;;;;;;;5056124;28;20063;-64
2022/05/14 10:00:06;;;;;;;1.63;0.40;;;;;;;;;;5056041;28;20049;-64
2022/05/14 10:02:32;;;;;;;1.65;0.50;;;;;;;;;;5053824;28;20048;-64
2022/05/14 10:05:05;;;;;;;2.33;0.57;;;;;;;;;;5054345;28;20069;-64
2022/05/14 10:07:50;;;;;;;1.52;0.50;;;;;;;;;;5054767;28;20388;-65
2022/05/14 10:10:32;;;;;;;1.98;0.65;;;;;;;;;;5057006;28;20061;-64
2022/05/14 10:13:03;;;;;;;1.90;0.63;;;;;;;;;;5058430;28;20045;-65
2022/05/14 10:15:37;;;;;;;6.28;0.60;;;;;;;;;;5040676;28;20094;-65
2022/05/14 10:18:03;;;;;;;1.63;0.60;;;;;;;;;;5039272;28;20079;-64
2022/05/14 10:20:36;;;;;;;2.20;0.57;;;;;;;;;;5056660;28;20044;-64
2022/05/14 10:29:22;;;;;;;1.75;0.50;;;;;;;;;;5055538;28;20047;-64
2022/05/14 10:31:49;;;;;;;2.33;0.70;;;;;;;;;;5053879;28;20057;-64
2022/05/14 10:34:18;;;;;;;2.47;0.60;;;;;;;;;;5057380;28;20132;-63
2022/05/14 10:36:49;;;;;;;1.65;0.50;;;;;;;;;;5054922;28;20032;-64
2022/05/14 10:39:24;;;;;;;1.85;0.50;;;;;;;;;;5054079;28;20162;-64
2022/05/14 10:41:53;;;;;;;1.75;0.50;;;;;;;;;;5054328;28;20056;-64
2022/05/14 10:44:33;;;;;;;2.42;0.70;;;;;;;;;;5056247;28;20037;-63
2022/05/14 10:47:03;;;;;;;2.55;0.60;;;;;;;;;;5055860;28;21096;-63
2022/05/14 10:49:39;;;;;;;2.10;0.50;;;;;;;;;;5054276;28;20436;-63
2022/05/14 10:52:09;;;;;;;2.22;0.65;;;;;;;;;;5055682;28;20052;-64
2022/05/14 10:54:36;;;;;;;1.77;0.60;;;;;;;;;;5054666;28;20029;-63
2022/05/14 10:57:23;;;;;;;1.95;0.50;;;;;;;;;;5055546;28;20116;-63
2022/05/14 10:59:53;;;;;;;2.20;0.70;;;;;;;;;;5055529;28;20036;-63
2022/05/14 11:02:28;;;;;;;2.22;0.60;;;;;;;;;;5055411;28;20623;-63
2022/05/14 11:04:55;;;;;;;2.17;0.50;;;;;;;;;;5055896;28;20128;-63
2022/05/14 11:07:36;;;;;;;1.58;0.55;;;;;;;;;;5054171;28;20064;-64
2022/05/14 11:10:08;;;;;;;2.35;0.70;;;;;;;;;;5054231;28;20062;-65
2022/05/14 11:12:35;;;;;;;2.30;0.60;;;;;;;;;;5054935;28;20160;-64
2022/05/14 11:15:04;;;;;;;2.70;0.60;;;;;;;;;;5055274;28;20033;-64
2022/05/14 11:17:32;;;;;;;1.52;0.47;;;;;;;;;;5054250;28;20083;-64
2022/05/14 11:20:05;;;;;;;3.25;0.60;;;;;;;;;;5053040;28;20083;-63
2022/05/14 11:22:35;;;;;;;2.25;0.60;;;;;;;;;;5055468;28;20044;-64
2022/05/14 11:25:14;;;;;;;2.60;0.50;;;;;;;;;;5055956;28;20448;-65
2022/05/14 11:27:41;;;;;;;1.65;0.50;;;;;;;;;;5055086;28;20044;-65
2022/05/14 11:30:10;;;;;;;1.42;0.50;;;;;;;;;;5055857;28;20092;-65
2022/05/14 11:32:46;;;;;;;1.50;0.50;;;;;;;;;;5055297;28;20037;-65
2022/05/14 11:35:13;;;;;;;1.52;0.50;;;;;;;;;;5055174;28;20032;-65
2022/05/14 11:37:43;;;;;;;2.05;0.50;;;;;;;;;;5053480;28;20048;-65
2022/05/14 11:40:22;;;;;;;1.25;0.40;;;;;;;;;;5053654;28;20041;-64
2022/05/14 11:42:53;;;;;;;2.03;0.57;;;;;;;;;;5053951;28;20065;-63
2022/05/14 11:45:23;;;;;;;1.73;0.50;;;;;;;;;;5054114;28;20056;-64
2022/05/14 11:47:52;;;;;;;1.55;0.50;;;;;;;;;;5055554;28;20043;-64
2022/05/14 11:50:21;;;;;;;2.38;0.55;;;;;;;;;;5052984;28;20064;-65
2022/05/14 11:52:57;;;;;;;3.42;0.65;;;;;;;;;;5052905;28;20037;-64
2022/05/14 11:55:27;;;;;;;2.35;0.50;;;;;;;;;;5054097;28;20128;-65
2022/05/14 11:58:02;;;;;;;1.55;0.57;;;;;;;;;;5054370;28;20036;-65
2022/05/14 12:00:32;;;;;;;2.30;0.57;;;;;;;;;;5055274;28;20072;-63
2022/05/14 12:03:24;;;;;;;2.15;0.50;;;;;;;;;;5052308;28;20047;-61
2022/05/14 12:05:59;;;;;;;1.60;0.60;;;;;;;;;;5052275;28;20052;-64
2022/05/14 12:08:36;;;;;;;4.32;0.70;;;;;;;;;;5054629;28;20047;-64
2022/05/14 12:11:04;;;;;;;0.85;0.35;;;;;;;;;;5055543;28;20057;-63
2022/05/14 12:13:37;;;;;;;1.55;0.50;;;;;;;;;;5053331;28;20033;-62
2022/05/14 12:16:04;;;;;;;1.40;0.45;;;;;;;;;;5053035;28;20090;-64
2022/05/14 12:18:32;;;;;;;1.67;0.50;;;;;;;;;;5054260;28;20028;-64
2022/05/14 12:21:00;;;;;;;2.53;0.70;;;;;;;;;;5052540;28;20052;-64
2022/05/14 12:23:34;;;;;;;1.65;0.50;;;;;;;;;;5051607;28;20073;-64
2022/05/14 12:26:01;;;;;;;2.05;0.63;;;;;;;;;;5052815;28;20040;-64
2022/05/14 12:28:29;;;;;;;2.92;0.60;;;;;;;;;;5052313;28;20048;-64
2022/05/14 12:33:53;;;;;;;1.67;0.50;;;;;;;;;;5051109;28;20044;-63
2022/05/14 12:36:20;;;;;;;2.00;0.50;;;;;;;;;;5053384;28;20080;-63
2022/05/14 12:38:46;;;;;;;2.05;0.50;;;;;;;;;;5050445;28;21795;-63
2022/05/14 12:41:23;;;;;;;2.50;0.50;;;;;;;;;;5054622;28;20505;-64
2022/05/14 12:43:50;;;;;;;2.65;0.50;;;;;;;;;;5054143;28;20055;-63
2022/05/14 12:46:19;;;;;;;1.20;0.50;;;;;;;;;;5054287;28;20068;-63
2022/05/14 12:48:50;;;;;;;1.15;0.40;;;;;;;;;;5052686;28;20826;-63
2022/05/14 12:51:21;;;;;;;4.85;0.70;;;;;;;;;;5051730;28;20142;-63
2022/05/14 12:53:48;;;;;;;1.73;0.60;;;;;;;;;;5043076;28;20041;-63
2022/05/14 12:56:15;;;;;;;1.40;0.40;;;;;;;;;;5054027;28;20090;-63
2022/05/14 12:58:43;;;;;;;1.75;0.50;;;;;;;;;;5053286;28;20056;-64
2022/05/14 13:01:11;;;;;;;2.60;0.60;;;;;;;;;;5053193;28;20110;-64
2022/05/14 13:03:39;;;;;;;1.77;0.60;;;;;;;;;;5051506;28;20041;-63
2022/05/14 13:06:11;;;;;;;1.15;0.40;;;;;;;;;;5052425;28;20428;-62
2022/05/14 13:08:42;;;;;;;1.92;0.60;;;;;;;;;;5038642;28;20052;-61
2022/05/14 13:11:16;;;;;;;1.27;0.43;;;;;;;;;;5054165;28;20823;-62
2022/05/14 13:13:45;;;;;;;2.03;0.60;;;;;;;;;;5044440;28;20036;-62
2022/05/14 13:16:12;;;;;;;1.52;0.50;;;;;;;;;;5052988;28;20048;-62
2022/05/14 13:18:41;;;;;;;1.45;0.50;;;;;;;;;;5052466;28;20040;-61
2022/05/14 13:21:14;;;;;;;6.82;1.23;;;;;;;;;;5053357;28;20061;-64
2022/05/14 13:23:51;;;;;;;1.98;0.50;;;;;;;;;;5051845;28;20424;-64
2022/05/14 13:26:26;;;;;;;2.08;0.60;;;;;;;;;;5053905;28;20032;-65
2022/05/14 13:28:53;;;;;;;1.48;0.47;;;;;;;;;;5051734;28;20032;-64
2022/05/14 13:31:26;;;;;;;1.50;0.50;;;;;;;;;;5053605;28;20044;-64
2022/05/14 13:33:59;;;;;;;10.00;0.60;;;;;;;;;;5052302;28;20155;-64
2022/05/14 13:39:14;;;;;;;3.25;0.70;;;;;;;;;;5040437;28;20139;-63
2022/05/14 13:41:43;;;;;;;2.83;0.57;;;;;;;;;;5052287;28;20114;-63
2022/05/14 13:44:16;;;;;;;2.10;0.60;;;;;;;;;;5053198;28;20048;-64
2022/05/14 13:46:45;;;;;;;4.85;0.60;;;;;;;;;;5053948;28;20539;-64
2022/05/14 13:49:22;;;;;;;2.80;0.80;;;;;;;;;;5053990;28;20397;-65
2022/05/14 13:51:53;;;;;;;1.20;0.50;;;;;;;;;;5054290;28;20114;-64
2022/05/14 13:54:40;;;;;;;4.65;0.60;;;;;;;;;;5052833;28;20048;-65
2022/05/14 13:57:27;;;;;;;3.58;0.68;;;;;;;;;;5053252;28;20048;-64
2022/05/14 14:00:11;;;;;;;1.73;0.55;;;;;;;;;;5052500;28;20629;-64
2022/05/14 14:02:39;;;;;;;1.33;0.50;;;;;;;;;;5053711;28;20048;-64
2022/05/14 14:05:08;;;;;;;2.13;0.60;;;;;;;;;;5054298;28;20040;-64
2022/05/14 14:07:36;;;;;;;2.42;0.70;;;;;;;;;;5054563;28;20819;-64
2022/05/14 14:10:11;;;;;;;2.20;0.60;;;;;;;;;;5055655;28;20140;-64
2022/05/14 14:12:38;;;;;;;2.50;0.50;;;;;;;;;;5053197;28;20067;-65
2022/05/14 14:15:05;;;;;;;2.67;0.50;;;;;;;;;;5052210;28;20275;-65
2022/05/14 14:17:31;;;;;;;2.20;0.57;;;;;;;;;;5036950;28;20108;-65
2022/05/14 14:19:58;;;;;;;2.25;0.65;;;;;;;;;;5056023;28;20090;-65
2022/05/14 14:22:25;;;;;;;2.58;0.55;;;;;;;;;;5054905;28;20047;-65
2022/05/14 14:24:53;;;;;;;1.08;0.40;;;;;;;;;;5053635;28;20044;-66
2022/05/14 14:27:20;;;;;;;2.92;0.65;;;;;;;;;;5037273;28;20078;-65
2022/05/14 14:29:46;;;;;;;2.55;0.55;;;;;;;;;;5039127;28;20074;-66
2022/05/14 14:32:13;;;;;;;0.98;0.43;;;;;;;;;;5056087;28;20473;-66
2022/05/14 14:34:40;;;;;;;1.50;0.50;;;;;;;;;;5056066;28;20056;-65
2022/05/14 14:37:07;;;;;;;2.20;0.60;;;;;;;;;;5054254;28;20473;-65
2022/05/14 14:39:34;;;;;;;2.10;0.60;;;;;;;;;;5054793;28;20041;-65
2022/05/14 14:42:00;;;;;;;1.33;0.52;;;;;;;;;;5054325;28;20044;-66
2022/05/14 14:44:28;;;;;;;0.60;0.40;;;;;;;;;;5051787;28;20037;-64
2022/05/14 14:46:58;;;;;;;2.38;0.50;;;;;;;;;;5055389;28;20044;-64
2022/05/14 14:49:25;;;;;;;1.60;0.50;;;;;;;;;;5054381;28;20051;-65
2022/05/14 14:51:57;;;;;;;1.77;0.52;;;;;;;;;;5054279;28;20032;-67
2022/05/14 14:54:23;;;;;;;2.08;0.70;;;;;;;;;;5042506;28;20049;-66
2022/05/14 14:56:50;;;;;;;1.00;0.50;;;;;;;;;;5059212;28;20029;-65
2022/05/14 14:59:17;;;;;;;2.85;0.70;;;;;;;;;;5058947;28;20040;-65
2022/05/14 15:01:47;;;;;;;1.13;0.40;;;;;;;;;;5057217;28;20449;-64
2022/05/14 15:04:20;;;;;;;1.88;0.55;;;;;;;;;;5055728;28;20403;-65
2022/05/14 15:06:48;;;;;;;1.67;0.55;;;;;;;;;;5055214;28;21643;-65
2022/05/14 15:09:15;;;;;;;3.05;0.57;;;;;;;;;;5056815;28;20075;-65
2022/05/14 15:11:41;;;;;;;2.15;0.50;;;;;;;;;;5055510;28;20044;-65
2022/05/14 15:14:12;;;;;;;1.80;0.55;;;;;;;;;;5056813;28;20043;-65
2022/05/14 15:16:39;;;;;;;1.90;0.43;;;;;;;;;;5054698;28;20415;-66
2022/05/14 15:19:05;;;;;;;0.50;0.30;;;;;;;;;;5055604;28;20032;-64
2022/05/14 15:21:32;;;;;;;1.67;0.50;;;;;;;;;;5055809;28;20048;-64